Time;durP1;ratioP1;P1;durP2;ratioP2;P2;SDS_P1;SDS_P2;PMS_P1;PMS_P2;Temp;Humidity;BMP_temperature;BMP_pressure;BME280_temperature;BME280_humidity;BME280_pressure;Samples;Min_cycle;Max_cycle;Signal;HPM_P1;HPM_P2
2022/03/21 00:00:43;;;;;;;;;;;2.20;54.80;;;;;;5070621;27;86938;-55
2022/03/21 00:03:10;;;;;;;;;;;2.20;54.90;;;;;;5067377;27;89102;-52
2022/03/21 00:05:36;;;;;;;;;;;2.10;54.70;;;;;;5068037;27;86863;-51
2022/03/21 00:08:02;;;;;;;;;;;2.10;54.80;;;;;;5067624;27;86919;-50
2022/03/21 00:10:32;;;;;;;;;;;2.20;54.80;;;;;;5067145;27;87826;-52
2022/03/21 00:12:59;;;;;;;;;;;2.10;54.70;;;;;;5067622;27;87091;-52
2022/03/21 00:15:25;;;;;;;;;;;2.20;54.80;;;;;;5067995;27;87039;-53
2022/03/21 00:17:51;;;;;;;;;;;2.10;54.80;;;;;;5067098;27;88558;-53
2022/03/21 00:20:16;;;;;;;;;;;2.10;54.80;;;;;;5067440;27;86917;-54
2022/03/21 00:22:42;;;;;;;;;;;2.20;54.90;;;;;;5069600;27;87868;-53
2022/03/21 00:25:11;;;;;;;;;;;2.10;54.70;;;;;;5067603;27;87149;-53
2022/03/21 00:27:37;;;;;;;;;;;2.10;54.60;;;;;;5067380;27;87879;-51
2022/03/21 00:30:04;;;;;;;;;;;2.10;54.80;;;;;;5066841;27;88622;-55
2022/03/21 00:32:30;;;;;;;;;;;2.10;54.70;;;;;;5067341;27;86840;-53
2022/03/21 00:34:56;;;;;;;;;;;2.10;54.80;;;;;;5067462;27;86816;-54
2022/03/21 00:37:23;;;;;;;;;;;2.10;54.70;;;;;;5067191;27;87463;-52
2022/03/21 00:39:50;;;;;;;;;;;2.10;54.80;;;;;;5067914;27;86039;-52
2022/03/21 00:42:16;;;;;;;;;;;2.10;54.90;;;;;;5067374;27;86915;-52
2022/03/21 00:44:42;;;;;;;;;;;2.10;55.00;;;;;;5069637;27;87657;-51
2022/03/21 00:47:07;;;;;;;;;;;2.10;55.00;;;;;;5066222;27;88065;-54
2022/03/21 00:49:33;;;;;;;;;;;2.00;54.70;;;;;;5066713;27;88575;-52
2022/03/21 00:51:59;;;;;;;;;;;2.00;55.10;;;;;;5066695;27;86871;-52
2022/03/21 00:54:24;;;;;;;;;;;2.00;55.10;;;;;;5066995;27;87029;-52
2022/03/21 00:56:50;;;;;;;;;;;2.00;55.30;;;;;;5066778;27;87428;-51
2022/03/21 00:59:16;;;;;;;;;;;2.00;54.90;;;;;;5066883;27;87001;-51
2022/03/21 01:01:41;;;;;;;;;;;2.00;55.00;;;;;;5067094;27;87141;-51
2022/03/21 01:04:07;;;;;;;;;;;2.00;55.20;;;;;;5066935;27;87816;-52
2022/03/21 01:06:33;;;;;;;;;;;2.00;55.10;;;;;;5069735;27;87184;-55
2022/03/21 01:08:58;;;;;;;;;;;1.90;55.10;;;;;;5066364;27;88742;-54
2022/03/21 01:11:24;;;;;;;;;;;2.00;55.00;;;;;;5066022;27;87809;-52
2022/03/21 01:13:50;;;;;;;;;;;2.00;55.40;;;;;;5066553;27;89152;-52
2022/03/21 01:16:16;;;;;;;;;;;2.00;55.70;;;;;;5066372;27;88399;-51
2022/03/21 01:18:44;;;;;;;;;;;2.00;55.20;;;;;;5066905;27;86832;-51
2022/03/21 01:21:10;;;;;;;;;;;1.90;55.40;;;;;;5066546;27;87827;-51
2022/03/21 01:23:36;;;;;;;;;;;1.90;55.30;;;;;;5066447;27;87348;-52
2022/03/21 01:26:01;;;;;;;;;;;1.90;55.40;;;;;;5066867;27;86836;-53
2022/03/21 01:28:27;;;;;;;;;;;1.90;55.50;;;;;;5069843;27;86481;-52
2022/03/21 01:30:53;;;;;;;;;;;1.90;55.60;;;;;;5066713;27;86891;-52
2022/03/21 01:33:18;;;;;;;;;;;1.90;55.60;;;;;;5066083;27;86876;-52
2022/03/21 01:35:44;;;;;;;;;;;1.90;55.60;;;;;;5065414;27;88638;-53
2022/03/21 01:38:09;;;;;;;;;;;1.90;55.60;;;;;;5066364;27;87191;-51
2022/03/21 01:40:35;;;;;;;;;;;1.90;55.80;;;;;;5066292;27;87994;-52
2022/03/21 01:43:01;;;;;;;;;;;1.80;55.60;;;;;;5066121;27;87420;-55
2022/03/21 01:45:28;;;;;;;;;;;1.80;55.80;;;;;;5066020;27;86841;-54
2022/03/21 01:47:54;;;;;;;;;;;1.80;55.80;;;;;;5068754;27;88053;-53
2022/03/21 01:50:20;;;;;;;;;;;1.80;55.80;;;;;;5066153;27;86759;-52
2022/03/21 01:52:46;;;;;;;;;;;1.80;55.70;;;;;;5066692;27;87838;-54
2022/03/21 01:57:58;;;;;;;;;;;1.80;55.80;;;;;;5063122;27;86848;-54
2022/03/21 02:00:23;;;;;;;;;;;1.70;55.60;;;;;;5065779;27;87773;-51
2022/03/21 02:02:49;;;;;;;;;;;1.70;55.70;;;;;;5065929;27;87304;-51
2022/03/21 02:05:15;;;;;;;;;;;1.70;55.70;;;;;;5068052;27;87038;-54
2022/03/21 02:07:41;;;;;;;;;;;1.80;55.80;;;;;;5069511;27;88486;-53
2022/03/21 02:10:07;;;;;;;;;;;1.70;55.70;;;;;;5072267;27;87480;-54
2022/03/21 02:12:33;;;;;;;;;;;1.80;55.70;;;;;;5069864;27;87238;-55
2022/03/21 02:14:59;;;;;;;;;;;1.70;55.80;;;;;;5069145;27;88579;-51
2022/03/21 02:17:27;;;;;;;;;;;1.70;55.80;;;;;;5070264;27;86396;-55
2022/03/21 02:19:54;;;;;;;;;;;1.70;55.90;;;;;;5069470;27;87416;-52
2022/03/21 02:22:45;;;;;;;;;;;1.70;55.80;;;;;;5069125;27;87353;-52
2022/03/21 02:25:14;;;;;;;;;;;1.70;55.80;;;;;;5064530;27;87817;-54
2022/03/21 02:27:40;;;;;;;;;;;1.70;55.90;;;;;;5069324;27;88911;-51
2022/03/21 02:30:07;;;;;;;;;;;1.60;55.90;;;;;;5069146;27;87376;-52
2022/03/21 02:32:32;;;;;;;;;;;1.70;55.80;;;;;;5072220;27;86971;-54
2022/03/21 02:34:58;;;;;;;;;;;1.70;55.90;;;;;;5068838;27;88524;-51
2022/03/21 02:37:25;;;;;;;;;;;1.70;55.90;;;;;;5069352;27;86794;-51
2022/03/21 02:39:52;;;;;;;;;;;1.70;56.00;;;;;;5069123;27;87014;-53
2022/03/21 02:42:19;;;;;;;;;;;1.70;55.90;;;;;;5069410;27;86681;-51
2022/03/21 02:44:44;;;;;;;;;;;1.70;56.00;;;;;;5069032;27;86804;-51
2022/03/21 02:47:10;;;;;;;;;;;1.70;56.60;;;;;;5068904;27;86926;-52
2022/03/21 02:49:36;;;;;;;;;;;1.60;55.90;;;;;;5067638;27;88675;-53
2022/03/21 02:52:04;;;;;;;;;;;1.70;55.90;;;;;;5068943;27;87006;-51
2022/03/21 02:54:30;;;;;;;;;;;1.60;56.00;;;;;;5071446;27;87640;-51
2022/03/21 02:56:56;;;;;;;;;;;1.70;56.10;;;;;;5068919;27;86831;-53
2022/03/21 02:59:22;;;;;;;;;;;1.70;56.00;;;;;;5069135;27;87048;-51
2022/03/21 03:01:47;;;;;;;;;;;1.60;56.00;;;;;;5068302;27;87681;-51
2022/03/21 03:04:13;;;;;;;;;;;1.60;55.90;;;;;;5068739;27;86953;-51
2022/03/21 03:06:41;;;;;;;;;;;1.60;55.80;;;;;;5069139;27;87828;-50
2022/03/21 03:09:07;;;;;;;;;;;1.60;55.90;;;;;;5068344;27;87532;-51
2022/03/21 03:11:36;;;;;;;;;;;1.60;55.90;;;;;;5068576;27;86839;-52
2022/03/21 03:14:02;;;;;;;;;;;1.50;56.00;;;;;;5067880;27;87916;-51
2022/03/21 03:16:47;;;;;;;;;;;1.50;56.00;;;;;;5071033;27;87767;-50
2022/03/21 03:19:13;;;;;;;;;;;1.60;56.10;;;;;;5068499;27;87929;-52
2022/03/21 03:21:43;;;;;;;;;;;1.50;56.00;;;;;;5068051;27;88671;-51
2022/03/21 03:24:09;;;;;;;;;;;1.50;55.90;;;;;;5068072;27;86986;-50
2022/03/21 03:26:35;;;;;;;;;;;1.50;55.90;;;;;;5068341;27;88020;-51
2022/03/21 03:29:01;;;;;;;;;;;1.50;56.00;;;;;;5068148;27;87369;-51
2022/03/21 03:31:26;;;;;;;;;;;1.50;56.00;;;;;;5068741;27;86145;-51
2022/03/21 03:33:53;;;;;;;;;;;1.60;56.00;;;;;;5068253;27;86882;-53
2022/03/21 03:36:19;;;;;;;;;;;1.50;56.00;;;;;;5068121;27;87220;-52
2022/03/21 03:38:46;;;;;;;;;;;1.50;56.10;;;;;;5070432;27;87761;-53
2022/03/21 03:41:12;;;;;;;;;;;1.50;56.10;;;;;;5067678;27;87761;-51
2022/03/21 03:43:38;;;;;;;;;;;1.50;55.90;;;;;;5068056;27;87062;-55
2022/03/21 03:46:04;;;;;;;;;;;1.50;56.70;;;;;;5067884;27;87058;-52
2022/03/21 03:48:30;;;;;;;;;;;1.50;56.10;;;;;;5067594;27;88177;-51
2022/03/21 03:50:56;;;;;;;;;;;1.50;56.10;;;;;;5067907;27;86870;-53
2022/03/21 03:53:22;;;;;;;;;;;1.40;56.00;;;;;;5067971;27;87729;-51
2022/03/21 03:55:47;;;;;;;;;;;1.50;56.10;;;;;;5067959;27;87581;-53
2022/03/21 03:58:13;;;;;;;;;;;1.50;56.00;;;;;;5071152;27;86862;-51
2022/03/21 04:00:39;;;;;;;;;;;1.50;56.20;;;;;;5067384;27;88761;-52
2022/03/21 04:05:50;;;;;;;;;;;1.50;56.10;;;;;;5064739;27;86850;-51
2022/03/21 04:08:16;;;;;;;;;;;1.50;56.10;;;;;;5067569;27;87722;-53
2022/03/21 04:10:43;;;;;;;;;;;1.40;56.10;;;;;;5068028;27;87249;-51
2022/03/21 04:13:08;;;;;;;;;;;1.50;56.10;;;;;;5068183;27;86839;-51
2022/03/21 04:15:34;;;;;;;;;;;1.40;56.10;;;;;;5067232;27;88502;-54
2022/03/21 04:18:00;;;;;;;;;;;1.40;56.20;;;;;;5067858;27;86791;-51
2022/03/21 04:20:29;;;;;;;;;;;1.40;56.20;;;;;;5070587;27;87263;-53
2022/03/21 04:22:55;;;;;;;;;;;1.40;56.20;;;;;;5067306;27;86924;-51
2022/03/21 04:25:21;;;;;;;;;;;1.40;56.30;;;;;;5067479;27;87995;-54
2022/03/21 04:27:46;;;;;;;;;;;1.40;56.20;;;;;;5065474;27;88620;-54
2022/03/21 04:30:12;;;;;;;;;;;1.40;56.10;;;;;;5067332;27;86911;-51
2022/03/21 04:32:38;;;;;;;;;;;1.40;56.20;;;;;;5067332;27;87958;-51
2022/03/21 04:35:04;;;;;;;;;;;1.30;56.30;;;;;;5067357;27;87512;-52
2022/03/21 04:37:30;;;;;;;;;;;1.40;56.20;;;;;;5067213;27;86866;-51
2022/03/21 04:39:55;;;;;;;;;;;1.30;56.30;;;;;;5067272;27;87168;-54
2022/03/21 04:42:22;;;;;;;;;;;1.30;56.40;;;;;;5069561;27;88487;-51
2022/03/21 04:44:50;;;;;;;;;;;1.30;56.30;;;;;;5067273;27;86960;-51
2022/03/21 04:47:17;;;;;;;;;;;1.30;56.30;;;;;;5066666;27;88676;-51
2022/03/21 04:49:43;;;;;;;;;;;1.30;56.40;;;;;;5067060;27;86884;-54
2022/03/21 04:52:09;;;;;;;;;;;1.30;56.30;;;;;;5066476;27;87968;-51
2022/03/21 04:54:34;;;;;;;;;;;1.30;56.50;;;;;;5066498;27;89119;-50
2022/03/21 04:57:00;;;;;;;;;;;1.30;56.30;;;;;;5067212;27;86930;-51
2022/03/21 04:59:25;;;;;;;;;;;1.30;56.50;;;;;;5066944;27;87696;-50
2022/03/21 05:01:51;;;;;;;;;;;1.30;56.50;;;;;;5066641;27;87490;-52
2022/03/21 05:04:19;;;;;;;;;;;1.20;56.30;;;;;;5069868;27;87140;-53
2022/03/21 05:06:46;;;;;;;;;;;1.30;56.40;;;;;;5066456;27;88315;-51
2022/03/21 05:09:11;;;;;;;;;;;1.30;56.40;;;;;;5067259;27;86157;-53
2022/03/21 05:11:37;;;;;;;;;;;1.30;56.50;;;;;;5067085;27;86925;-51
2022/03/21 05:14:02;;;;;;;;;;;1.30;56.50;;;;;;5066396;27;87608;-50
2022/03/21 05:16:28;;;;;;;;;;;1.30;56.40;;;;;;5066339;27;87769;-51
2022/03/21 05:18:54;;;;;;;;;;;1.20;56.40;;;;;;5066741;27;87941;-52
2022/03/21 05:21:19;;;;;;;;;;;1.30;56.30;;;;;;5066314;27;88350;-51
2022/03/21 05:31:59;;;;;;;;;;;1.20;56.40;;;;;;5066994;27;86836;-51
2022/03/21 05:37:08;;;;;;;;;;;1.20;56.40;;;;;;5066732;27;86884;-50
2022/03/21 05:39:34;;;;;;;;;;;1.20;56.50;;;;;;5068926;27;87146;-54
2022/03/21 05:41:59;;;;;;;;;;;1.20;56.40;;;;;;5068875;27;89495;-52
2022/03/21 05:44:25;;;;;;;;;;;1.20;56.40;;;;;;5069957;27;86953;-51
2022/03/21 05:46:51;;;;;;;;;;;1.20;56.40;;;;;;5070080;27;86969;-52
2022/03/21 05:49:16;;;;;;;;;;;1.20;56.30;;;;;;5072431;27;88620;-51
2022/03/21 05:51:42;;;;;;;;;;;1.20;56.30;;;;;;5070052;27;87943;-51
2022/03/21 05:54:12;;;;;;;;;;;1.20;56.10;;;;;;5069428;27;87953;-52
2022/03/21 05:56:39;;;;;;;;;;;1.20;56.20;;;;;;5069763;27;86906;-53
2022/03/21 06:01:50;;;;;;;;;;;1.20;56.10;;;;;;5069542;27;87449;-51
2022/03/21 06:04:16;;;;;;;;;;;1.20;56.00;;;;;;5069861;27;87084;-50
2022/03/21 06:06:43;;;;;;;;;;;1.20;55.90;;;;;;5069106;27;87781;-51
2022/03/21 06:09:10;;;;;;;;;;;1.20;56.00;;;;;;5072071;27;87877;-50
2022/03/21 06:11:36;;;;;;;;;;;1.20;56.00;;;;;;5069605;27;88007;-51
2022/03/21 06:14:03;;;;;;;;;;;1.20;55.90;;;;;;5069199;27;88720;-51
2022/03/21 06:16:29;;;;;;;;;;;1.20;55.90;;;;;;5069556;27;86856;-51
2022/03/21 06:18:59;;;;;;;;;;;1.20;56.00;;;;;;5069541;27;86910;-50
2022/03/21 06:21:25;;;;;;;;;;;1.20;56.00;;;;;;5068463;27;87860;-52
2022/03/21 06:23:51;;;;;;;;;;;1.20;55.80;;;;;;5069139;27;86154;-54
2022/03/21 06:26:17;;;;;;;;;;;1.30;55.80;;;;;;4715913;27;10000335;-50
2022/03/21 06:28:42;;;;;;;;;;;1.20;55.80;;;;;;4717851;27;10000493;-51
2022/03/21 06:31:08;;;;;;;;;;;1.20;55.80;;;;;;5070704;27;88109;-53
2022/03/21 06:33:34;;;;;;;;;;;1.20;55.80;;;;;;5068389;27;87128;-51
2022/03/21 06:36:00;;;;;;;;;;;1.20;56.10;;;;;;5068377;27;86932;-51
2022/03/21 06:38:26;;;;;;;;;;;1.20;55.60;;;;;;5068591;27;87297;-51
2022/03/21 06:40:51;;;;;;;;;;;1.20;55.30;;;;;;5068102;27;88644;-51
2022/03/21 06:43:20;;;;;;;;;;;1.20;55.20;;;;;;5068181;27;87061;-52
2022/03/21 06:45:51;;;;;;;;;;;1.20;55.30;;;;;;5068249;27;87813;-50
2022/03/21 06:48:17;;;;;;;;;;;1.20;55.00;;;;;;5068966;27;88026;-54
2022/03/21 06:50:42;;;;;;;;;;;1.10;54.70;;;;;;5067867;27;86890;-52
2022/03/21 06:53:08;;;;;;;;;;;1.10;54.70;;;;;;5071214;27;86866;-51
2022/03/21 06:55:34;;;;;;;;;;;1.20;54.60;;;;;;5067786;27;88078;-54
2022/03/21 06:58:01;;;;;;;;;;;1.20;53.80;;;;;;5068398;27;88739;-52
2022/03/21 07:00:26;;;;;;;;;;;1.20;54.00;;;;;;5067910;27;88074;-53
2022/03/21 07:02:52;;;;;;;;;;;1.20;53.60;;;;;;5068129;27;86911;-54
2022/03/21 07:05:18;;;;;;;;;;;1.20;53.40;;;;;;5068268;27;88172;-53
2022/03/21 07:07:43;;;;;;;;;;;1.20;53.10;;;;;;5067916;27;87566;-52
2022/03/21 07:10:09;;;;;;;;;;;1.20;52.70;;;;;;5068631;27;86913;-53
2022/03/21 07:12:35;;;;;;;;;;;1.20;52.90;;;;;;5068246;27;86722;-55
2022/03/21 07:15:01;;;;;;;;;;;1.20;53.10;;;;;;5070840;27;87665;-54
2022/03/21 07:17:27;;;;;;;;;;;1.20;52.70;;;;;;5068344;27;86956;-53
2022/03/21 07:19:52;;;;;;;;;;;1.20;52.50;;;;;;5067375;27;87728;-54
2022/03/21 07:22:18;;;;;;;;;;;1.30;52.60;;;;;;5068183;27;86936;-52
2022/03/21 07:24:44;;;;;;;;;;;1.20;52.30;;;;;;5068167;27;87952;-53
2022/03/21 07:27:12;;;;;;;;;;;1.20;52.10;;;;;;5067945;27;87666;-52
2022/03/21 07:29:37;;;;;;;;;;;1.20;52.30;;;;;;5068191;27;86835;-53
2022/03/21 07:32:03;;;;;;;;;;;1.20;52.10;;;;;;5068263;27;87843;-51
2022/03/21 07:34:29;;;;;;;;;;;1.20;52.40;;;;;;5067971;27;88763;-53
2022/03/21 07:36:55;;;;;;;;;;;1.20;52.40;;;;;;5071873;27;86346;-54
2022/03/21 07:39:20;;;;;;;;;;;1.20;52.40;;;;;;5067880;27;88890;-53
2022/03/21 07:41:46;;;;;;;;;;;1.20;52.30;;;;;;5068265;27;86780;-54
2022/03/21 07:47:17;;;;;;;;;;;1.20;52.50;;;;;;5067330;27;88335;-51
2022/03/21 07:49:42;;;;;;;;;;;1.20;52.70;;;;;;5064670;27;86844;-54
2022/03/21 07:52:07;;;;;;;;;;;1.20;52.70;;;;;;5068158;27;86771;-53
2022/03/21 07:54:33;;;;;;;;;;;1.20;52.70;;;;;;5067184;27;88937;-51
2022/03/21 07:56:59;;;;;;;;;;;1.20;52.70;;;;;;5068081;27;87066;-54
2022/03/21 07:59:25;;;;;;;;;;;1.20;53.00;;;;;;5070178;27;87748;-55
2022/03/21 08:01:50;;;;;;;;;;;1.20;52.80;;;;;;5066851;27;86149;-51
2022/03/21 08:04:17;;;;;;;;;;;1.20;53.10;;;;;;5068256;27;87189;-52
2022/03/21 08:06:44;;;;;;;;;;;1.20;53.20;;;;;;5067655;27;88031;-52
2022/03/21 08:09:09;;;;;;;;;;;1.30;53.00;;;;;;5067020;27;87854;-51
2022/03/21 08:11:35;;;;;;;;;;;1.30;53.20;;;;;;5066894;27;87740;-54
2022/03/21 08:14:00;;;;;;;;;;;1.30;53.60;;;;;;5066848;27;88483;-55
2022/03/21 08:16:26;;;;;;;;;;;1.30;53.30;;;;;;5067382;27;86902;-50
2022/03/21 08:18:52;;;;;;;;;;;1.30;53.60;;;;;;5070404;27;86973;-53
2022/03/21 08:21:19;;;;;;;;;;;1.30;52.80;;;;;;5067368;27;86850;-54
2022/03/21 08:23:46;;;;;;;;;;;1.30;53.80;;;;;;5067776;27;88240;-55
2022/03/21 08:26:12;;;;;;;;;;;1.30;53.50;;;;;;5067597;27;86741;-53
2022/03/21 08:28:37;;;;;;;;;;;1.30;52.90;;;;;;5067150;27;86855;-52
2022/03/21 08:31:03;;;;;;;;;;;1.30;53.20;;;;;;5067536;27;87208;-52
2022/03/21 08:33:29;;;;;;;;;;;1.40;53.20;;;;;;5066489;27;88388;-54
2022/03/21 08:35:55;;;;;;;;;;;1.40;53.80;;;;;;5066931;27;86914;-51
2022/03/21 08:38:20;;;;;;;;;;;1.40;52.30;;;;;;5067156;27;86852;-53
2022/03/21 08:40:46;;;;;;;;;;;1.30;53.00;;;;;;5069411;27;88492;-54
2022/03/21 08:43:11;;;;;;;;;;;1.40;54.00;;;;;;5066945;27;86988;-52
2022/03/21 08:45:37;;;;;;;;;;;1.40;53.10;;;;;;5066530;27;87378;-53
2022/03/21 08:48:03;;;;;;;;;;;1.40;53.70;;;;;;5066916;27;86990;-54
2022/03/21 08:50:29;;;;;;;;;;;1.40;52.60;;;;;;5067407;27;87075;-54
2022/03/21 08:52:57;;;;;;;;;;;1.40;53.80;;;;;;5066507;27;88543;-52
2022/03/21 08:55:23;;;;;;;;;;;1.40;53.70;;;;;;5067037;27;86934;-51
2022/03/21 08:57:48;;;;;;;;;;;1.40;53.10;;;;;;5066372;27;88271;-52
2022/03/21 09:00:15;;;;;;;;;;;1.50;52.70;;;;;;5066312;27;88579;-54
2022/03/21 09:02:41;;;;;;;;;;;1.40;52.90;;;;;;5069364;27;86777;-51
2022/03/21 09:05:11;;;;;;;;;;;1.50;52.70;;;;;;5066554;27;86775;-52
2022/03/21 09:07:37;;;;;;;;;;;1.50;52.80;;;;;;5066778;27;86899;-54
2022/03/21 09:10:03;;;;;;;;;;;1.50;52.40;;;;;;5066853;27;87031;-51
2022/03/21 09:12:29;;;;;;;;;;;1.50;52.70;;;;;;5066226;27;87671;-52
2022/03/21 09:14:55;;;;;;;;;;;1.50;52.40;;;;;;5066417;27;86148;-54
2022/03/21 09:17:21;;;;;;;;;;;1.50;53.00;;;;;;5066402;27;87811;-54
2022/03/21 09:19:47;;;;;;;;;;;1.50;52.80;;;;;;5065294;27;87588;-54
2022/03/21 09:22:12;;;;;;;;;;;1.50;52.70;;;;;;5066557;27;87843;-53
2022/03/21 09:24:38;;;;;;;;;;;1.50;52.50;;;;;;5069556;27;88994;-55
2022/03/21 09:27:03;;;;;;;;;;;1.60;52.30;;;;;;5066305;27;86889;-55
2022/03/21 09:29:31;;;;;;;;;;;1.60;52.70;;;;;;5066727;27;86911;-53
2022/03/21 09:31:56;;;;;;;;;;;1.60;52.80;;;;;;5065515;27;87620;-51
2022/03/21 09:34:22;;;;;;;;;;;1.60;52.90;;;;;;5066338;27;86898;-50
2022/03/21 09:36:48;;;;;;;;;;;1.60;52.80;;;;;;5066500;27;86889;-54
2022/03/21 09:39:14;;;;;;;;;;;1.70;52.90;;;;;;5066593;27;86681;-52
2022/03/21 09:41:40;;;;;;;;;;;1.60;53.00;;;;;;5066278;27;86900;-51
2022/03/21 09:44:10;;;;;;;;;;;1.70;52.60;;;;;;5066269;27;87289;-50
2022/03/21 09:46:37;;;;;;;;;;;1.70;52.90;;;;;;5067635;27;89436;-51
2022/03/21 09:49:06;;;;;;;;;;;1.70;52.90;;;;;;5066085;27;88873;-54
2022/03/21 09:51:31;;;;;;;;;;;1.70;53.00;;;;;;5065753;27;87413;-55
2022/03/21 09:53:58;;;;;;;;;;;1.70;53.20;;;;;;5066005;27;86949;-55
2022/03/21 09:56:25;;;;;;;;;;;1.70;52.00;;;;;;5066038;27;87208;-52
2022/03/21 09:58:58;;;;;;;;;;;1.80;52.20;;;;;;5065875;27;87705;-52
2022/03/21 10:01:25;;;;;;;;;;;1.70;52.30;;;;;;5065739;27;86887;-54
2022/03/21 10:03:51;;;;;;;;;;;1.80;52.00;;;;;;5066395;27;87988;-54
2022/03/21 10:06:26;;;;;;;;;;;1.80;52.20;;;;;;5065345;27;87902;-53
2022/03/21 10:09:02;;;;;;;;;;;1.80;52.10;;;;;;5069127;27;87214;-53
2022/03/21 10:11:28;;;;;;;;;;;1.80;51.90;;;;;;5064556;27;89367;-52
2022/03/21 10:13:54;;;;;;;;;;;1.90;52.20;;;;;;5065779;27;87418;-52
2022/03/21 10:16:19;;;;;;;;;;;1.90;52.50;;;;;;5066293;27;86883;-51
2022/03/21 10:18:54;;;;;;;;;;;1.90;51.60;;;;;;5065286;27;87826;-54
2022/03/21 10:21:22;;;;;;;;;;;1.90;51.80;;;;;;5065762;27;86942;-51
2022/03/21 10:24:18;;;;;;;;;;;1.90;53.00;;;;;;5065758;27;88322;-53
2022/03/21 10:26:46;;;;;;;;;;;1.90;52.30;;;;;;5050721;27;88611;-51
2022/03/21 10:29:11;;;;;;;;;;;2.00;52.20;;;;;;5072697;27;86173;-53
2022/03/21 10:31:40;;;;;;;;;;;2.00;51.30;;;;;;5068519;27;88580;-52
2022/03/21 10:34:10;;;;;;;;;;;2.00;51.30;;;;;;5068987;27;86883;-54
2022/03/21 10:36:55;;;;;;;;;;;2.00;52.00;;;;;;5068579;27;88254;-54
2022/03/21 10:39:21;;;;;;;;;;;2.10;52.20;;;;;;5069470;27;87596;-53
2022/03/21 10:41:47;;;;;;;;;;;2.10;52.20;;;;;;5071033;27;86845;-53
2022/03/21 10:44:12;;;;;;;;;;;2.10;51.90;;;;;;5068931;27;87829;-55
2022/03/21 10:46:40;;;;;;;;;;;2.10;51.10;;;;;;5068059;27;88871;-52
2022/03/21 10:49:07;;;;;;;;;;;2.20;51.90;;;;;;5068788;27;86896;-52
2022/03/21 10:51:56;;;;;;;;;;;2.20;51.50;;;;;;5071366;27;87788;-55
2022/03/21 10:54:41;;;;;;;;;;;2.20;51.80;;;;;;5069211;27;86107;-53
2022/03/21 10:57:08;;;;;;;;;;;2.20;51.20;;;;;;5068729;27;86869;-53
2022/03/21 10:59:34;;;;;;;;;;;2.20;51.00;;;;;;5068289;27;88616;-53
2022/03/21 11:02:18;;;;;;;;;;;2.30;51.30;;;;;;5067958;27;87847;-55
2022/03/21 11:04:47;;;;;;;;;;;2.20;51.40;;;;;;5068829;27;87675;-54
2022/03/21 11:07:12;;;;;;;;;;;2.30;51.90;;;;;;5068253;27;88483;-55
2022/03/21 11:09:41;;;;;;;;;;;2.30;51.10;;;;;;5068481;27;86874;-53
2022/03/21 11:12:08;;;;;;;;;;;2.30;51.10;;;;;;5068592;27;88043;-53
2022/03/21 11:14:40;;;;;;;;;;;2.30;51.60;;;;;;5070865;27;88502;-52
2022/03/21 11:17:06;;;;;;;;;;;2.30;50.60;;;;;;5069000;27;86987;-52
2022/03/21 11:19:33;;;;;;;;;;;2.40;50.90;;;;;;5068363;27;86613;-54
2022/03/21 11:22:01;;;;;;;;;;;2.40;51.40;;;;;;5068304;27;86940;-51
2022/03/21 11:24:28;;;;;;;;;;;2.50;50.90;;;;;;5068359;27;87963;-53
2022/03/21 11:26:59;;;;;;;;;;;2.40;50.90;;;;;;5067275;27;88151;-51
2022/03/21 11:29:36;;;;;;;;;;;2.50;50.50;;;;;;5068155;27;86860;-54
2022/03/21 11:32:02;;;;;;;;;;;2.50;50.50;;;;;;5068347;27;87231;-54
2022/03/21 11:34:28;;;;;;;;;;;2.50;50.20;;;;;;5068093;27;87621;-53
2022/03/21 11:36:54;;;;;;;;;;;2.50;50.40;;;;;;5070819;27;86855;-55
2022/03/21 11:39:20;;;;;;;;;;;2.50;50.20;;;;;;5067765;27;88766;-55
2022/03/21 11:41:56;;;;;;;;;;;2.50;50.30;;;;;;5068105;27;87002;-55
2022/03/21 11:44:22;;;;;;;;;;;2.50;50.80;;;;;;5068792;27;88244;-54
2022/03/21 11:46:48;;;;;;;;;;;2.60;50.60;;;;;;5067822;27;87792;-52
2022/03/21 11:49:16;;;;;;;;;;;2.60;50.00;;;;;;5067733;27;87010;-52
2022/03/21 11:51:43;;;;;;;;;;;2.60;50.70;;;;;;5067297;27;87803;-54
2022/03/21 11:54:24;;;;;;;;;;;2.60;50.80;;;;;;5067682;27;88590;-52
2022/03/21 11:56:56;;;;;;;;;;;2.70;51.40;;;;;;5068244;27;86885;-55
2022/03/21 11:59:33;;;;;;;;;;;2.70;50.40;;;;;;5071852;27;88140;-51
2022/03/21 12:02:11;;;;;;;;;;;2.70;50.60;;;;;;5067994;27;87049;-52
2022/03/21 12:04:41;;;;;;;;;;;2.70;50.10;;;;;;5067672;27;87836;-52
2022/03/21 12:07:12;;;;;;;;;;;2.70;50.70;;;;;;5067390;27;88131;-54
2022/03/21 12:09:39;;;;;;;;;;;2.70;51.00;;;;;;5068240;27;86624;-53
2022/03/21 12:12:05;;;;;;;;;;;2.80;51.80;;;;;;5067779;27;87130;-55
2022/03/21 12:14:43;;;;;;;;;;;2.80;51.60;;;;;;5066914;27;88526;-54
2022/03/21 12:17:12;;;;;;;;;;;2.80;50.60;;;;;;5066770;27;87855;-55
2022/03/21 12:19:55;;;;;;;;;;;2.80;49.80;;;;;;5067357;27;87670;-53
2022/03/21 12:22:27;;;;;;;;;;;2.90;49.60;;;;;;5069760;27;88531;-52
2022/03/21 12:24:53;;;;;;;;;;;2.90;50.00;;;;;;5067167;27;87729;-54
2022/03/21 12:27:42;;;;;;;;;;;2.90;50.60;;;;;;5067075;27;88362;-53
2022/03/21 12:30:41;;;;;;;;;;;2.90;49.90;;;;;;5056213;27;87109;-51
2022/03/21 12:33:14;;;;;;;;;;;3.00;50.80;;;;;;5067007;27;87660;-54
2022/03/21 12:35:42;;;;;;;;;;;3.00;50.90;;;;;;5067495;27;87858;-51
2022/03/21 12:38:14;;;;;;;;;;;3.00;51.20;;;;;;5067229;27;86891;-53
2022/03/21 12:40:46;;;;;;;;;;;3.00;51.70;;;;;;5067075;27;87076;-53
2022/03/21 12:43:12;;;;;;;;;;;3.10;50.10;;;;;;5050722;27;89658;-54
2022/03/21 12:45:38;;;;;;;;;;;3.10;50.50;;;;;;5067235;27;88199;-53
2022/03/21 12:48:08;;;;;;;;;;;3.10;50.00;;;;;;5065984;27;86920;-54
2022/03/21 12:50:35;;;;;;;;;;;3.10;50.20;;;;;;5067528;27;87153;-54
2022/03/21 12:53:05;;;;;;;;;;;3.10;50.30;;;;;;5067056;27;87238;-54
2022/03/21 12:55:31;;;;;;;;;;;3.20;51.00;;;;;;5066764;27;88548;-54
2022/03/21 12:57:56;;;;;;;;;;;3.20;50.00;;;;;;5066506;27;86861;-51
2022/03/21 13:00:23;;;;;;;;;;;3.20;50.90;;;;;;5067585;27;86638;-51
2022/03/21 13:02:51;;;;;;;;;;;3.20;50.80;;;;;;5066445;27;88822;-53
2022/03/21 13:10:50;;;;;;;;;;;3.30;50.30;;;;;;5066924;27;86888;-55
2022/03/21 13:13:15;;;;;;;;;;;3.30;51.20;;;;;;5066788;27;87927;-53
2022/03/21 13:15:41;;;;;;;;;;;3.40;51.70;;;;;;5066229;27;88392;-52
2022/03/21 13:18:06;;;;;;;;;;;3.40;51.50;;;;;;5069962;27;86897;-54
2022/03/21 13:20:34;;;;;;;;;;;3.40;51.50;;;;;;5066864;27;87048;-53
2022/03/21 13:23:01;;;;;;;;;;;3.40;51.00;;;;;;5066273;27;87668;-52
2022/03/21 13:25:30;;;;;;;;;;;3.40;51.40;;;;;;5067263;27;86193;-53
2022/03/21 13:28:06;;;;;;;;;;;3.50;50.60;;;;;;5068935;27;87309;-54
2022/03/21 13:30:33;;;;;;;;;;;3.50;50.80;;;;;;5066927;27;87233;-54
2022/03/21 13:32:58;;;;;;;;;;;3.50;50.30;;;;;;5065924;27;88092;-55
2022/03/21 13:35:24;;;;;;;;;;;3.50;50.30;;;;;;5066170;27;86930;-55
2022/03/21 13:38:03;;;;;;;;;;;3.50;50.70;;;;;;5066342;27;86875;-52
2022/03/21 13:40:29;;;;;;;;;;;3.50;50.40;;;;;;5066416;27;86865;-51
2022/03/21 13:42:54;;;;;;;;;;;3.60;50.20;;;;;;5066020;27;87514;-53
2022/03/21 13:45:21;;;;;;;;;;;3.60;50.50;;;;;;5066084;27;86929;-53
2022/03/21 13:47:48;;;;;;;;;;;3.60;50.90;;;;;;5066201;27;87176;-53
2022/03/21 13:50:14;;;;;;;;;;;3.70;51.40;;;;;;5069527;27;87843;-53
2022/03/21 13:52:46;;;;;;;;;;;3.70;51.10;;;;;;5066385;27;87276;-55
2022/03/21 13:55:21;;;;;;;;;;;3.70;50.90;;;;;;5065783;27;87848;-55
2022/03/21 13:57:50;;;;;;;;;;;3.70;51.00;;;;;;5065267;27;87827;-53
2022/03/21 14:00:23;;;;;;;;;;;3.80;50.90;;;;;;5066681;27;87934;-51
2022/03/21 14:02:49;;;;;;;;;;;3.80;51.00;;;;;;5069107;27;88519;-54
2022/03/21 14:05:19;;;;;;;;;;;3.90;50.80;;;;;;5069713;27;87096;-52
2022/03/21 14:07:46;;;;;;;;;;;3.90;50.80;;;;;;5069725;27;86858;-51
2022/03/21 14:10:22;;;;;;;;;;;3.90;50.70;;;;;;5068980;27;88328;-55
2022/03/21 14:12:49;;;;;;;;;;;3.90;50.80;;;;;;5072223;27;86954;-53
2022/03/21 14:15:17;;;;;;;;;;;3.90;51.30;;;;;;5069568;27;87703;-54
2022/03/21 14:17:45;;;;;;;;;;;4.00;50.80;;;;;;5069420;27;86886;-54
2022/03/21 14:20:10;;;;;;;;;;;4.00;50.80;;;;;;5069337;27;86960;-51
2022/03/21 14:22:36;;;;;;;;;;;4.00;50.80;;;;;;5068423;27;88490;-55
2022/03/21 14:25:02;;;;;;;;;;;4.10;51.70;;;;;;5069224;27;86864;-51
2022/03/21 14:27:27;;;;;;;;;;;4.10;50.50;;;;;;5069281;27;87576;-55
2022/03/21 14:29:53;;;;;;;;;;;4.10;50.40;;;;;;5069356;27;87064;-52
2022/03/21 14:32:18;;;;;;;;;;;4.10;51.10;;;;;;5069205;27;86886;-54
2022/03/21 14:34:44;;;;;;;;;;;4.10;50.60;;;;;;5071539;27;87835;-55
2022/03/21 14:37:10;;;;;;;;;;;4.10;50.50;;;;;;5072137;27;86891;-51
2022/03/21 14:39:35;;;;;;;;;;;4.20;50.70;;;;;;5069973;27;86656;-52
2022/03/21 14:42:01;;;;;;;;;;;4.20;50.90;;;;;;5068348;27;88413;-52
2022/03/21 14:44:27;;;;;;;;;;;4.20;50.70;;;;;;5069096;27;86915;-52
2022/03/21 14:46:53;;;;;;;;;;;4.20;50.30;;;;;;5068078;27;87946;-55
2022/03/21 14:49:19;;;;;;;;;;;4.20;50.70;;;;;;5068391;27;87563;-54
2022/03/21 14:51:45;;;;;;;;;;;4.20;50.60;;;;;;5068991;27;86865;-52
2022/03/21 14:54:11;;;;;;;;;;;4.20;50.30;;;;;;5071157;27;87878;-52
2022/03/21 14:56:36;;;;;;;;;;;4.20;50.20;;;;;;5068787;27;86823;-55